Terminal Aerodrome Forecast
Issued by NWS

Home | Current Version | Previous Version | Text Only | Print | Product List | Glossary On
Versions: 1 2 3 4 5 6 7 8 9 10 11 12 13 14 15
000
FTUS42 KTBW 211700 CCA
TAFPGD
TAF COR
KPGD 211742Z 2118/2218 06012G20KT P6SM BKN070 BKN250
     FM220000 06010KT P6SM SCT030 BKN045
     FM221400 09013G22KT P6SM VCSH BKN025 OVC050=

USA.gov is the U.S. government's official web portal to all federal, state and local government web resources and services.